sensor_id;sensor_type;location;lat;lon;timestamp;temperature;humidity
21807;DHT22;11065;50.786;7.840;2024-03-25T00:00:50;9.00;52.30
21807;DHT22;11065;50.786;7.840;2024-03-25T00:03:16;9.00;52.30
21807;DHT22;11065;50.786;7.840;2024-03-25T00:05:44;9.00;52.40
21807;DHT22;11065;50.786;7.840;2024-03-25T00:08:10;9.00;52.30
21807;DHT22;11065;50.786;7.840;2024-03-25T00:10:37;9.00;52.20
21807;DHT22;11065;50.786;7.840;2024-03-25T00:13:03;9.00;52.30
21807;DHT22;11065;50.786;7.840;2024-03-25T00:15:31;9.00;52.30
21807;DHT22;11065;50.786;7.840;2024-03-25T00:17:57;9.00;52.30
21807;DHT22;11065;50.786;7.840;2024-03-25T00:20:23;9.00;52.30
21807;DHT22;11065;50.786;7.840;2024-03-25T00:22:51;9.00;52.30
21807;DHT22;11065;50.786;7.840;2024-03-25T00:25:18;9.00;52.50
21807;DHT22;11065;50.786;7.840;2024-03-25T00:27:45;9.00;52.60
21807;DHT22;11065;50.786;7.840;2024-03-25T00:30:12;9.00;52.70
21807;DHT22;11065;50.786;7.840;2024-03-25T00:32:39;9.00;52.80
21807;DHT22;11065;50.786;7.840;2024-03-25T00:35:07;9.00;53.00
21807;DHT22;11065;50.786;7.840;2024-03-25T00:37:33;9.00;53.20
21807;DHT22;11065;50.786;7.840;2024-03-25T00:40:02;9.00;53.10
21807;DHT22;11065;50.786;7.840;2024-03-25T00:42:29;9.00;53.20
21807;DHT22;11065;50.786;7.840;2024-03-25T00:44:56;8.90;53.30
21807;DHT22;11065;50.786;7.840;2024-03-25T00:47:23;8.90;53.80
21807;DHT22;11065;50.786;7.840;2024-03-25T00:49:50;8.90;53.30
21807;DHT22;11065;50.786;7.840;2024-03-25T00:52:16;8.90;53.30
21807;DHT22;11065;50.786;7.840;2024-03-25T00:54:43;8.90;53.30
21807;DHT22;11065;50.786;7.840;2024-03-25T00:57:10;8.90;53.20
21807;DHT22;11065;50.786;7.840;2024-03-25T00:59:38;8.90;53.20
21807;DHT22;11065;50.786;7.840;2024-03-25T01:02:05;8.90;53.20
21807;DHT22;11065;50.786;7.840;2024-03-25T01:04:32;9.00;53.30
21807;DHT22;11065;50.786;7.840;2024-03-25T01:06:58;9.00;53.30
21807;DHT22;11065;50.786;7.840;2024-03-25T01:09:25;9.00;53.20
21807;DHT22;11065;50.786;7.840;2024-03-25T01:11:51;9.00;53.20
21807;DHT22;11065;50.786;7.840;2024-03-25T01:14:20;9.00;53.20
21807;DHT22;11065;50.786;7.840;2024-03-25T01:16:46;9.00;53.20
21807;DHT22;11065;50.786;7.840;2024-03-25T01:19:13;9.00;53.20
21807;DHT22;11065;50.786;7.840;2024-03-25T01:21:39;9.00;53.10
21807;DHT22;11065;50.786;7.840;2024-03-25T01:24:06;9.00;53.20
21807;DHT22;11065;50.786;7.840;2024-03-25T01:26:32;8.90;53.20
21807;DHT22;11065;50.786;7.840;2024-03-25T01:28:59;8.90;53.10
21807;DHT22;11065;50.786;7.840;2024-03-25T01:31:26;8.90;53.10
21807;DHT22;11065;50.786;7.840;2024-03-25T01:33:54;8.90;53.10
21807;DHT22;11065;50.786;7.840;2024-03-25T01:36:20;8.90;53.00
21807;DHT22;11065;50.786;7.840;2024-03-25T01:38:47;8.90;53.10
21807;DHT22;11065;50.786;7.840;2024-03-25T01:41:14;8.90;53.00
21807;DHT22;11065;50.786;7.840;2024-03-25T01:43:42;8.90;53.00
21807;DHT22;11065;50.786;7.840;2024-03-25T01:46:09;8.90;53.00
21807;DHT22;11065;50.786;7.840;2024-03-25T01:48:38;8.90;53.00
21807;DHT22;11065;50.786;7.840;2024-03-25T01:51:04;8.80;53.00
21807;DHT22;11065;50.786;7.840;2024-03-25T01:53:31;8.80;52.90
21807;DHT22;11065;50.786;7.840;2024-03-25T01:55:58;8.80;53.00
21807;DHT22;11065;50.786;7.840;2024-03-25T01:58:25;8.80;53.10
21807;DHT22;11065;50.786;7.840;2024-03-25T02:00:52;8.80;53.00
21807;DHT22;11065;50.786;7.840;2024-03-25T02:03:20;8.80;53.00
21807;DHT22;11065;50.786;7.840;2024-03-25T02:05:49;8.80;52.90
21807;DHT22;11065;50.786;7.840;2024-03-25T02:08:17;8.80;53.00
21807;DHT22;11065;50.786;7.840;2024-03-25T02:10:45;8.80;53.00
21807;DHT22;11065;50.786;7.840;2024-03-25T02:13:14;8.80;53.00
21807;DHT22;11065;50.786;7.840;2024-03-25T02:15:41;8.80;53.00
21807;DHT22;11065;50.786;7.840;2024-03-25T02:18:08;8.80;53.00
21807;DHT22;11065;50.786;7.840;2024-03-25T02:20:34;8.80;53.00
21807;DHT22;11065;50.786;7.840;2024-03-25T02:23:02;8.80;53.00
21807;DHT22;11065;50.786;7.840;2024-03-25T02:25:31;8.80;53.00
21807;DHT22;11065;50.786;7.840;2024-03-25T02:28:01;8.80;53.10
21807;DHT22;11065;50.786;7.840;2024-03-25T02:30:27;8.80;53.50
21807;DHT22;11065;50.786;7.840;2024-03-25T02:32:54;8.80;53.00
21807;DHT22;11065;50.786;7.840;2024-03-25T02:35:21;8.80;53.10
21807;DHT22;11065;50.786;7.840;2024-03-25T02:37:50;8.80;53.10
21807;DHT22;11065;50.786;7.840;2024-03-25T02:40:17;8.80;53.10
21807;DHT22;11065;50.786;7.840;2024-03-25T02:42:45;8.80;53.10
21807;DHT22;11065;50.786;7.840;2024-03-25T02:45:13;8.80;53.10
21807;DHT22;11065;50.786;7.840;2024-03-25T02:47:40;8.80;53.10
21807;DHT22;11065;50.786;7.840;2024-03-25T02:50:07;8.80;53.10
21807;DHT22;11065;50.786;7.840;2024-03-25T02:52:34;8.80;53.10
21807;DHT22;11065;50.786;7.840;2024-03-25T02:55:00;8.80;53.20
21807;DHT22;11065;50.786;7.840;2024-03-25T02:57:27;8.80;53.10
21807;DHT22;11065;50.786;7.840;2024-03-25T02:59:53;8.80;53.10
21807;DHT22;11065;50.786;7.840;2024-03-25T03:02:21;8.80;53.20
21807;DHT22;11065;50.786;7.840;2024-03-25T03:04:48;8.70;53.20
21807;DHT22;11065;50.786;7.840;2024-03-25T03:07:15;8.80;53.20
21807;DHT22;11065;50.786;7.840;2024-03-25T03:09:41;8.80;53.30
21807;DHT22;11065;50.786;7.840;2024-03-25T03:12:08;8.80;53.20
21807;DHT22;11065;50.786;7.840;2024-03-25T03:14:34;8.70;53.20
21807;DHT22;11065;50.786;7.840;2024-03-25T03:17:01;8.70;53.20
21807;DHT22;11065;50.786;7.840;2024-03-25T03:19:32;8.70;53.20
21807;DHT22;11065;50.786;7.840;2024-03-25T03:22:02;8.70;53.20
21807;DHT22;11065;50.786;7.840;2024-03-25T03:24:28;8.70;53.20
21807;DHT22;11065;50.786;7.840;2024-03-25T03:26:55;8.70;53.10
21807;DHT22;11065;50.786;7.840;2024-03-25T03:29:21;8.70;53.10
21807;DHT22;11065;50.786;7.840;2024-03-25T03:31:48;8.70;53.20
21807;DHT22;11065;50.786;7.840;2024-03-25T03:34:14;8.70;53.20
21807;DHT22;11065;50.786;7.840;2024-03-25T03:36:42;8.70;53.20
21807;DHT22;11065;50.786;7.840;2024-03-25T03:39:08;8.70;53.30
21807;DHT22;11065;50.786;7.840;2024-03-25T03:41:35;8.70;53.30
21807;DHT22;11065;50.786;7.840;2024-03-25T03:44:02;8.70;53.30
21807;DHT22;11065;50.786;7.840;2024-03-25T03:46:29;8.70;53.30
21807;DHT22;11065;50.786;7.840;2024-03-25T03:48:55;8.70;53.40
21807;DHT22;11065;50.786;7.840;2024-03-25T03:51:22;8.70;53.30
21807;DHT22;11065;50.786;7.840;2024-03-25T03:53:49;8.70;53.40
21807;DHT22;11065;50.786;7.840;2024-03-25T03:56:16;8.70;53.40
21807;DHT22;11065;50.786;7.840;2024-03-25T03:58:43;8.70;53.40
21807;DHT22;11065;50.786;7.840;2024-03-25T04:01:16;8.70;53.40
21807;DHT22;11065;50.786;7.840;2024-03-25T04:03:43;8.70;53.50
21807;DHT22;11065;50.786;7.840;2024-03-25T04:06:11;8.70;53.40
21807;DHT22;11065;50.786;7.840;2024-03-25T04:08:38;8.70;53.40
21807;DHT22;11065;50.786;7.840;2024-03-25T04:11:06;8.70;53.30
21807;DHT22;11065;50.786;7.840;2024-03-25T04:13:33;8.70;53.40
21807;DHT22;11065;50.786;7.840;2024-03-25T04:16:01;8.70;53.40
21807;DHT22;11065;50.786;7.840;2024-03-25T04:18:28;8.70;53.40
21807;DHT22;11065;50.786;7.840;2024-03-25T04:20:55;8.70;53.40
21807;DHT22;11065;50.786;7.840;2024-03-25T04:23:21;8.70;53.40
21807;DHT22;11065;50.786;7.840;2024-03-25T04:25:48;8.70;53.40
21807;DHT22;11065;50.786;7.840;2024-03-25T04:28:16;8.60;53.40
21807;DHT22;11065;50.786;7.840;2024-03-25T04:30:43;8.70;53.40
21807;DHT22;11065;50.786;7.840;2024-03-25T04:33:09;8.70;53.40
21807;DHT22;11065;50.786;7.840;2024-03-25T04:35:36;8.70;53.60
21807;DHT22;11065;50.786;7.840;2024-03-25T04:38:02;8.60;53.40
21807;DHT22;11065;50.786;7.840;2024-03-25T04:40:29;8.60;53.50
21807;DHT22;11065;50.786;7.840;2024-03-25T04:42:55;8.60;53.50
21807;DHT22;11065;50.786;7.840;2024-03-25T04:45:22;8.60;53.50
21807;DHT22;11065;50.786;7.840;2024-03-25T04:47:48;8.60;53.60
21807;DHT22;11065;50.786;7.840;2024-03-25T04:50:14;8.60;53.60
21807;DHT22;11065;50.786;7.840;2024-03-25T04:52:41;8.60;53.60
21807;DHT22;11065;50.786;7.840;2024-03-25T04:55:07;8.60;53.60
21807;DHT22;11065;50.786;7.840;2024-03-25T04:57:33;8.60;53.80
21807;DHT22;11065;50.786;7.840;2024-03-25T05:00:00;8.50;53.60
21807;DHT22;11065;50.786;7.840;2024-03-25T05:02:27;8.50;53.60
21807;DHT22;11065;50.786;7.840;2024-03-25T05:04:53;8.50;53.70
21807;DHT22;11065;50.786;7.840;2024-03-25T05:07:19;8.50;53.50
21807;DHT22;11065;50.786;7.840;2024-03-25T05:09:45;8.50;53.50
21807;DHT22;11065;50.786;7.840;2024-03-25T05:12:11;8.50;53.40
21807;DHT22;11065;50.786;7.840;2024-03-25T05:14:38;8.50;53.50
21807;DHT22;11065;50.786;7.840;2024-03-25T05:17:04;8.40;53.50
21807;DHT22;11065;50.786;7.840;2024-03-25T05:19:31;8.40;53.50
21807;DHT22;11065;50.786;7.840;2024-03-25T05:21:58;8.50;53.50
21807;DHT22;11065;50.786;7.840;2024-03-25T05:24:24;8.40;53.50
21807;DHT22;11065;50.786;7.840;2024-03-25T05:26:50;8.40;53.50
21807;DHT22;11065;50.786;7.840;2024-03-25T05:29:16;8.40;53.50
21807;DHT22;11065;50.786;7.840;2024-03-25T05:31:57;8.40;53.60
21807;DHT22;11065;50.786;7.840;2024-03-25T05:34:24;8.30;53.70
21807;DHT22;11065;50.786;7.840;2024-03-25T05:36:52;8.30;53.50
21807;DHT22;11065;50.786;7.840;2024-03-25T05:39:18;8.30;53.80
21807;DHT22;11065;50.786;7.840;2024-03-25T05:41:44;8.30;53.80
21807;DHT22;11065;50.786;7.840;2024-03-25T05:44:11;8.30;53.80
21807;DHT22;11065;50.786;7.840;2024-03-25T05:46:37;8.30;53.80
21807;DHT22;11065;50.786;7.840;2024-03-25T05:49:04;8.30;53.80
21807;DHT22;11065;50.786;7.840;2024-03-25T05:51:30;8.30;53.80
21807;DHT22;11065;50.786;7.840;2024-03-25T05:53:58;8.30;53.80
21807;DHT22;11065;50.786;7.840;2024-03-25T05:56:24;8.30;53.80
21807;DHT22;11065;50.786;7.840;2024-03-25T05:58:50;8.30;53.80
21807;DHT22;11065;50.786;7.840;2024-03-25T06:01:16;8.30;53.80
21807;DHT22;11065;50.786;7.840;2024-03-25T06:03:42;8.30;53.80
21807;DHT22;11065;50.786;7.840;2024-03-25T06:06:08;8.30;53.80
21807;DHT22;11065;50.786;7.840;2024-03-25T06:08:34;8.30;53.80
21807;DHT22;11065;50.786;7.840;2024-03-25T06:11:02;8.30;53.90
21807;DHT22;11065;50.786;7.840;2024-03-25T06:13:28;8.30;54.00
21807;DHT22;11065;50.786;7.840;2024-03-25T06:15:54;8.30;54.00
21807;DHT22;11065;50.786;7.840;2024-03-25T06:18:21;8.30;54.00
21807;DHT22;11065;50.786;7.840;2024-03-25T06:20:47;8.40;54.10
21807;DHT22;11065;50.786;7.840;2024-03-25T06:23:22;8.40;54.00
21807;DHT22;11065;50.786;7.840;2024-03-25T06:25:49;8.40;54.00
21807;DHT22;11065;50.786;7.840;2024-03-25T06:28:17;8.30;53.90
21807;DHT22;11065;50.786;7.840;2024-03-25T06:30:44;8.30;53.80
21807;DHT22;11065;50.786;7.840;2024-03-25T06:33:34;8.30;53.80
21807;DHT22;11065;50.786;7.840;2024-03-25T06:36:19;8.30;53.90
21807;DHT22;11065;50.786;7.840;2024-03-25T06:38:46;8.30;53.70
21807;DHT22;11065;50.786;7.840;2024-03-25T06:41:12;8.30;53.70
21807;DHT22;11065;50.786;7.840;2024-03-25T06:43:39;8.30;53.70
21807;DHT22;11065;50.786;7.840;2024-03-25T06:46:05;8.30;53.80
21807;DHT22;11065;50.786;7.840;2024-03-25T06:48:32;8.30;53.90
21807;DHT22;11065;50.786;7.840;2024-03-25T06:50:59;8.30;53.90
21807;DHT22;11065;50.786;7.840;2024-03-25T06:53:25;8.30;54.00
21807;DHT22;11065;50.786;7.840;2024-03-25T06:55:55;8.30;54.00
21807;DHT22;11065;50.786;7.840;2024-03-25T06:58:22;8.30;54.00
21807;DHT22;11065;50.786;7.840;2024-03-25T07:00:50;8.30;53.90
21807;DHT22;11065;50.786;7.840;2024-03-25T07:03:17;8.30;53.80
21807;DHT22;11065;50.786;7.840;2024-03-25T07:05:44;8.30;53.80
21807;DHT22;11065;50.786;7.840;2024-03-25T07:08:11;8.30;53.80
21807;DHT22;11065;50.786;7.840;2024-03-25T07:10:37;8.30;53.90
21807;DHT22;11065;50.786;7.840;2024-03-25T07:13:03;8.40;54.00
21807;DHT22;11065;50.786;7.840;2024-03-25T07:15:29;8.40;54.10
21807;DHT22;11065;50.786;7.840;2024-03-25T07:17:57;8.40;53.90
21807;DHT22;11065;50.786;7.840;2024-03-25T07:20:23;8.50;53.90
21807;DHT22;11065;50.786;7.840;2024-03-25T07:22:49;8.50;54.40
21807;DHT22;11065;50.786;7.840;2024-03-25T07:25:15;8.50;53.90
21807;DHT22;11065;50.786;7.840;2024-03-25T07:27:44;8.60;53.80
21807;DHT22;11065;50.786;7.840;2024-03-25T07:30:10;8.60;53.70
21807;DHT22;11065;50.786;7.840;2024-03-25T07:32:37;8.70;53.70
21807;DHT22;11065;50.786;7.840;2024-03-25T07:35:05;8.80;53.60
21807;DHT22;11065;50.786;7.840;2024-03-25T07:37:31;8.80;53.50
21807;DHT22;11065;50.786;7.840;2024-03-25T07:39:57;8.80;53.40
21807;DHT22;11065;50.786;7.840;2024-03-25T07:42:24;8.90;53.40
21807;DHT22;11065;50.786;7.840;2024-03-25T07:44:50;8.90;53.20
21807;DHT22;11065;50.786;7.840;2024-03-25T07:47:16;9.00;53.10
21807;DHT22;11065;50.786;7.840;2024-03-25T07:49:42;9.00;53.00
21807;DHT22;11065;50.786;7.840;2024-03-25T07:52:10;9.10;53.00
21807;DHT22;11065;50.786;7.840;2024-03-25T07:54:36;9.00;52.90
21807;DHT22;11065;50.786;7.840;2024-03-25T07:57:03;9.10;53.00
21807;DHT22;11065;50.786;7.840;2024-03-25T07:59:29;9.10;53.10
21807;DHT22;11065;50.786;7.840;2024-03-25T08:01:55;9.10;53.10
21807;DHT22;11065;50.786;7.840;2024-03-25T08:04:21;9.20;53.00
21807;DHT22;11065;50.786;7.840;2024-03-25T08:06:47;9.30;53.00
21807;DHT22;11065;50.786;7.840;2024-03-25T08:09:15;9.30;53.10
21807;DHT22;11065;50.786;7.840;2024-03-25T08:11:41;9.40;53.10
21807;DHT22;11065;50.786;7.840;2024-03-25T08:14:09;9.50;53.20
21807;DHT22;11065;50.786;7.840;2024-03-25T08:16:35;9.60;53.00
21807;DHT22;11065;50.786;7.840;2024-03-25T08:19:01;9.70;53.00
21807;DHT22;11065;50.786;7.840;2024-03-25T08:21:27;9.80;53.00
21807;DHT22;11065;50.786;7.840;2024-03-25T08:23:53;9.80;52.90
21807;DHT22;11065;50.786;7.840;2024-03-25T08:26:21;10.00;52.80
21807;DHT22;11065;50.786;7.840;2024-03-25T08:28:47;10.10;52.50
21807;DHT22;11065;50.786;7.840;2024-03-25T08:31:13;10.20;52.60
21807;DHT22;11065;50.786;7.840;2024-03-25T08:33:39;10.30;52.90
21807;DHT22;11065;50.786;7.840;2024-03-25T08:36:06;10.50;53.00
21807;DHT22;11065;50.786;7.840;2024-03-25T08:38:32;10.60;52.90
21807;DHT22;11065;50.786;7.840;2024-03-25T08:40:59;10.80;53.10
21807;DHT22;11065;50.786;7.840;2024-03-25T08:43:27;11.00;52.90
21807;DHT22;11065;50.786;7.840;2024-03-25T08:45:53;11.10;52.50
21807;DHT22;11065;50.786;7.840;2024-03-25T08:48:19;11.30;52.10
21807;DHT22;11065;50.786;7.840;2024-03-25T08:50:45;11.30;52.00
21807;DHT22;11065;50.786;7.840;2024-03-25T08:53:11;11.40;51.90
21807;DHT22;11065;50.786;7.840;2024-03-25T08:55:37;11.50;51.80
21807;DHT22;11065;50.786;7.840;2024-03-25T08:58:03;11.60;51.70
21807;DHT22;11065;50.786;7.840;2024-03-25T09:00:31;11.80;52.90
21807;DHT22;11065;50.786;7.840;2024-03-25T09:02:57;12.40;55.00
21807;DHT22;11065;50.786;7.840;2024-03-25T09:05:23;13.10;55.60
21807;DHT22;11065;50.786;7.840;2024-03-25T09:07:49;13.70;54.20
21807;DHT22;11065;50.786;7.840;2024-03-25T09:10:16;14.20;52.60
21807;DHT22;11065;50.786;7.840;2024-03-25T09:13:00;14.40;51.30
21807;DHT22;11065;50.786;7.840;2024-03-25T09:15:26;14.50;50.20
21807;DHT22;11065;50.786;7.840;2024-03-25T09:17:54;14.50;49.40
21807;DHT22;11065;50.786;7.840;2024-03-25T09:20:20;14.40;48.90
21807;DHT22;11065;50.786;7.840;2024-03-25T09:22:46;14.20;48.20
21807;DHT22;11065;50.786;7.840;2024-03-25T09:25:12;14.10;48.30
21807;DHT22;11065;50.786;7.840;2024-03-25T09:27:39;14.10;47.70
21807;DHT22;11065;50.786;7.840;2024-03-25T09:30:06;14.20;47.30
21807;DHT22;11065;50.786;7.840;2024-03-25T09:32:33;14.20;47.30
21807;DHT22;11065;50.786;7.840;2024-03-25T09:35:01;14.20;47.50
21807;DHT22;11065;50.786;7.840;2024-03-25T09:37:27;14.10;48.00
21807;DHT22;11065;50.786;7.840;2024-03-25T09:39:53;14.30;49.10
21807;DHT22;11065;50.786;7.840;2024-03-25T09:42:25;14.60;48.70
21807;DHT22;11065;50.786;7.840;2024-03-25T09:44:54;14.70;48.10
21807;DHT22;11065;50.786;7.840;2024-03-25T09:47:21;14.90;47.60
21807;DHT22;11065;50.786;7.840;2024-03-25T09:49:48;15.00;47.80
21807;DHT22;11065;50.786;7.840;2024-03-25T09:52:15;15.00;47.50
21807;DHT22;11065;50.786;7.840;2024-03-25T09:54:42;15.10;47.00
21807;DHT22;11065;50.786;7.840;2024-03-25T09:57:08;15.30;48.30
21807;DHT22;11065;50.786;7.840;2024-03-25T09:59:34;15.70;49.60
21807;DHT22;11065;50.786;7.840;2024-03-25T10:02:01;16.50;51.60
21807;DHT22;11065;50.786;7.840;2024-03-25T10:04:28;17.30;51.10
21807;DHT22;11065;50.786;7.840;2024-03-25T10:06:54;18.10;50.70
21807;DHT22;11065;50.786;7.840;2024-03-25T10:09:22;18.90;50.40
21807;DHT22;11065;50.786;7.840;2024-03-25T10:11:48;19.60;48.80
21807;DHT22;11065;50.786;7.840;2024-03-25T10:14:15;20.10;47.90
21807;DHT22;11065;50.786;7.840;2024-03-25T10:16:41;20.60;47.80
21807;DHT22;11065;50.786;7.840;2024-03-25T10:19:08;21.20;48.30
21807;DHT22;11065;50.786;7.840;2024-03-25T10:21:34;21.90;48.50
21807;DHT22;11065;50.786;7.840;2024-03-25T10:24:00;22.70;48.40
21807;DHT22;11065;50.786;7.840;2024-03-25T10:26:29;23.50;48.40
21807;DHT22;11065;50.786;7.840;2024-03-25T10:28:59;24.50;47.50
21807;DHT22;11065;50.786;7.840;2024-03-25T10:31:26;25.20;44.90
21807;DHT22;11065;50.786;7.840;2024-03-25T10:33:52;25.50;43.90
21807;DHT22;11065;50.786;7.840;2024-03-25T10:36:20;25.70;42.50
21807;DHT22;11065;50.786;7.840;2024-03-25T10:38:49;25.70;40.80
21807;DHT22;11065;50.786;7.840;2024-03-25T10:41:18;25.40;39.60
21807;DHT22;11065;50.786;7.840;2024-03-25T10:43:47;25.10;38.90
21807;DHT22;11065;50.786;7.840;2024-03-25T10:46:18;24.70;38.40
21807;DHT22;11065;50.786;7.840;2024-03-25T10:48:52;24.40;40.00
21807;DHT22;11065;50.786;7.840;2024-03-25T10:51:21;24.50;40.20
21807;DHT22;11065;50.786;7.840;2024-03-25T10:53:50;24.60;40.40
21807;DHT22;11065;50.786;7.840;2024-03-25T10:56:20;24.70;39.90
21807;DHT22;11065;50.786;7.840;2024-03-25T10:58:48;24.70;39.10
21807;DHT22;11065;50.786;7.840;2024-03-25T11:01:16;24.80;39.70
21807;DHT22;11065;50.786;7.840;2024-03-25T11:03:44;25.10;40.20
21807;DHT22;11065;50.786;7.840;2024-03-25T11:06:11;25.40;40.60
21807;DHT22;11065;50.786;7.840;2024-03-25T11:08:37;25.90;41.30
21807;DHT22;11065;50.786;7.840;2024-03-25T11:11:03;26.60;41.20
21807;DHT22;11065;50.786;7.840;2024-03-25T11:13:31;27.20;40.40
21807;DHT22;11065;50.786;7.840;2024-03-25T11:15:59;27.70;40.30
21807;DHT22;11065;50.786;7.840;2024-03-25T11:18:25;28.20;39.70
21807;DHT22;11065;50.786;7.840;2024-03-25T11:21:01;28.70;39.40
21807;DHT22;11065;50.786;7.840;2024-03-25T11:23:35;29.20;37.70
21807;DHT22;11065;50.786;7.840;2024-03-25T11:26:02;29.50;36.70
21807;DHT22;11065;50.786;7.840;2024-03-25T11:28:29;29.50;35.30
21807;DHT22;11065;50.786;7.840;2024-03-25T11:30:55;29.30;35.00
21807;DHT22;11065;50.786;7.840;2024-03-25T11:33:23;28.80;32.90
21807;DHT22;11065;50.786;7.840;2024-03-25T11:35:49;28.40;32.80
21807;DHT22;11065;50.786;7.840;2024-03-25T11:38:16;28.00;33.80
21807;DHT22;11065;50.786;7.840;2024-03-25T11:40:43;27.90;34.60
21807;DHT22;11065;50.786;7.840;2024-03-25T11:43:18;27.80;34.70
21807;DHT22;11065;50.786;7.840;2024-03-25T11:45:46;27.90;34.10
21807;DHT22;11065;50.786;7.840;2024-03-25T11:48:14;28.10;35.00
21807;DHT22;11065;50.786;7.840;2024-03-25T11:50:45;28.30;35.10
21807;DHT22;11065;50.786;7.840;2024-03-25T11:53:17;28.40;34.20
21807;DHT22;11065;50.786;7.840;2024-03-25T11:55:46;28.50;34.30
21807;DHT22;11065;50.786;7.840;2024-03-25T11:58:12;28.50;33.50
21807;DHT22;11065;50.786;7.840;2024-03-25T12:00:43;28.50;33.60
21807;DHT22;11065;50.786;7.840;2024-03-25T12:03:11;28.50;32.60
21807;DHT22;11065;50.786;7.840;2024-03-25T12:05:39;28.40;32.50
21807;DHT22;11065;50.786;7.840;2024-03-25T12:08:09;28.30;32.80
21807;DHT22;11065;50.786;7.840;2024-03-25T12:10:36;28.20;32.20
21807;DHT22;11065;50.786;7.840;2024-03-25T12:13:36;28.20;32.50
21807;DHT22;11065;50.786;7.840;2024-03-25T12:16:04;28.10;32.60
21807;DHT22;11065;50.786;7.840;2024-03-25T12:18:30;28.10;31.90
21807;DHT22;11065;50.786;7.840;2024-03-25T12:20:57;28.00;31.60
21807;DHT22;11065;50.786;7.840;2024-03-25T12:23:29;27.90;31.60
21807;DHT22;11065;50.786;7.840;2024-03-25T12:25:55;27.80;30.30
21807;DHT22;11065;50.786;7.840;2024-03-25T12:28:21;27.70;31.10
21807;DHT22;11065;50.786;7.840;2024-03-25T12:30:51;27.70;31.40
21807;DHT22;11065;50.786;7.840;2024-03-25T12:33:18;27.70;30.70
21807;DHT22;11065;50.786;7.840;2024-03-25T12:35:45;27.80;31.40
21807;DHT22;11065;50.786;7.840;2024-03-25T12:38:26;27.80;31.30
21807;DHT22;11065;50.786;7.840;2024-03-25T12:40:53;27.90;30.40
21807;DHT22;11065;50.786;7.840;2024-03-25T12:43:19;28.10;31.80
21807;DHT22;11065;50.786;7.840;2024-03-25T12:45:45;28.20;31.40
21807;DHT22;11065;50.786;7.840;2024-03-25T12:48:11;28.30;31.10
21807;DHT22;11065;50.786;7.840;2024-03-25T12:50:38;28.40;30.80
21807;DHT22;11065;50.786;7.840;2024-03-25T12:53:04;28.50;29.90
21807;DHT22;11065;50.786;7.840;2024-03-25T12:55:31;28.50;29.60
21807;DHT22;11065;50.786;7.840;2024-03-25T12:57:57;28.40;29.50
21807;DHT22;11065;50.786;7.840;2024-03-25T13:00:23;28.30;29.80
21807;DHT22;11065;50.786;7.840;2024-03-25T13:02:50;28.20;28.80
21807;DHT22;11065;50.786;7.840;2024-03-25T13:05:16;28.10;28.20
21807;DHT22;11065;50.786;7.840;2024-03-25T13:07:42;27.80;28.00
21807;DHT22;11065;50.786;7.840;2024-03-25T13:10:08;27.50;28.70
21807;DHT22;11065;50.786;7.840;2024-03-25T13:12:35;27.40;29.10
21807;DHT22;11065;50.786;7.840;2024-03-25T13:15:02;27.30;29.10
21807;DHT22;11065;50.786;7.840;2024-03-25T13:17:28;27.10;29.20
21807;DHT22;11065;50.786;7.840;2024-03-25T13:19:54;27.10;29.10
21807;DHT22;11065;50.786;7.840;2024-03-25T13:22:20;27.00;28.80
21807;DHT22;11065;50.786;7.840;2024-03-25T13:24:46;26.90;28.80
21807;DHT22;11065;50.786;7.840;2024-03-25T13:27:13;26.90;28.90
21807;DHT22;11065;50.786;7.840;2024-03-25T13:29:40;26.90;28.90
21807;DHT22;11065;50.786;7.840;2024-03-25T13:32:06;26.90;28.90
21807;DHT22;11065;50.786;7.840;2024-03-25T13:34:32;26.90;28.90
21807;DHT22;11065;50.786;7.840;2024-03-25T13:36:58;26.80;28.80
21807;DHT22;11065;50.786;7.840;2024-03-25T13:39:25;26.90;29.10
21807;DHT22;11065;50.786;7.840;2024-03-25T13:41:51;26.90;29.00
21807;DHT22;11065;50.786;7.840;2024-03-25T13:44:17;26.90;28.90
21807;DHT22;11065;50.786;7.840;2024-03-25T13:46:44;26.90;29.00
21807;DHT22;11065;50.786;7.840;2024-03-25T13:49:10;27.00;29.10
21807;DHT22;11065;50.786;7.840;2024-03-25T13:51:37;27.10;29.20
21807;DHT22;11065;50.786;7.840;2024-03-25T13:54:03;27.10;29.10
21807;DHT22;11065;50.786;7.840;2024-03-25T13:56:29;27.10;29.10
21807;DHT22;11065;50.786;7.840;2024-03-25T13:58:56;27.20;28.90
21807;DHT22;11065;50.786;7.840;2024-03-25T14:01:22;27.20;28.80
21807;DHT22;11065;50.786;7.840;2024-03-25T14:03:49;27.20;28.60
21807;DHT22;11065;50.786;7.840;2024-03-25T14:06:15;27.20;28.30
21807;DHT22;11065;50.786;7.840;2024-03-25T14:08:42;27.20;28.50
21807;DHT22;11065;50.786;7.840;2024-03-25T14:11:08;27.30;28.20
21807;DHT22;11065;50.786;7.840;2024-03-25T14:13:34;27.20;28.30
21807;DHT22;11065;50.786;7.840;2024-03-25T14:16:00;27.20;27.90
21807;DHT22;11065;50.786;7.840;2024-03-25T14:18:27;27.10;27.30
21807;DHT22;11065;50.786;7.840;2024-03-25T14:20:54;27.00;27.60
21807;DHT22;11065;50.786;7.840;2024-03-25T14:23:20;26.90;27.40
21807;DHT22;11065;50.786;7.840;2024-03-25T14:25:46;26.80;27.60
21807;DHT22;11065;50.786;7.840;2024-03-25T14:28:13;26.70;27.70
21807;DHT22;11065;50.786;7.840;2024-03-25T14:30:39;26.70;27.60
21807;DHT22;11065;50.786;7.840;2024-03-25T14:33:05;26.60;27.60
21807;DHT22;11065;50.786;7.840;2024-03-25T14:35:31;26.60;27.60
21807;DHT22;11065;50.786;7.840;2024-03-25T14:37:59;26.60;27.70
21807;DHT22;11065;50.786;7.840;2024-03-25T14:40:25;26.50;27.50
21807;DHT22;11065;50.786;7.840;2024-03-25T14:42:51;26.50;27.50
21807;DHT22;11065;50.786;7.840;2024-03-25T14:45:17;26.40;27.50
21807;DHT22;11065;50.786;7.840;2024-03-25T14:47:43;26.30;27.60
21807;DHT22;11065;50.786;7.840;2024-03-25T14:50:09;26.30;27.60
21807;DHT22;11065;50.786;7.840;2024-03-25T14:52:35;26.20;27.60
21807;DHT22;11065;50.786;7.840;2024-03-25T14:55:03;26.10;27.50
21807;DHT22;11065;50.786;7.840;2024-03-25T14:57:29;26.00;27.10
21807;DHT22;11065;50.786;7.840;2024-03-25T14:59:55;25.90;27.20
21807;DHT22;11065;50.786;7.840;2024-03-25T15:02:22;25.80;27.30
21807;DHT22;11065;50.786;7.840;2024-03-25T15:04:48;25.80;27.40
21807;DHT22;11065;50.786;7.840;2024-03-25T15:07:14;25.80;27.40
21807;DHT22;11065;50.786;7.840;2024-03-25T15:09:40;25.70;27.30
21807;DHT22;11065;50.786;7.840;2024-03-25T15:12:07;25.70;27.30
21807;DHT22;11065;50.786;7.840;2024-03-25T15:14:33;25.70;27.30
21807;DHT22;11065;50.786;7.840;2024-03-25T15:16:59;25.70;27.30
21807;DHT22;11065;50.786;7.840;2024-03-25T15:19:26;25.70;27.30
21807;DHT22;11065;50.786;7.840;2024-03-25T15:21:52;25.70;27.30
21807;DHT22;11065;50.786;7.840;2024-03-25T15:24:18;25.60;27.40
21807;DHT22;11065;50.786;7.840;2024-03-25T15:26:44;25.60;27.20
21807;DHT22;11065;50.786;7.840;2024-03-25T15:29:12;25.60;26.80
21807;DHT22;11065;50.786;7.840;2024-03-25T15:31:38;25.50;27.00
21807;DHT22;11065;50.786;7.840;2024-03-25T15:34:04;25.50;26.90
21807;DHT22;11065;50.786;7.840;2024-03-25T15:36:30;25.40;26.10
21807;DHT22;11065;50.786;7.840;2024-03-25T15:38:56;25.20;26.40